Time;durP1;ratioP1;P1;durP2;ratioP2;P2;SDS_P1;SDS_P2;PMS_P1;PMS_P2;Temp;Humidity;BMP_temperature;BMP_pressure;BME280_temperature;BME280_humidity;BME280_pressure;Samples;Min_cycle;Max_cycle;Signal;HPM_P1;HPM_P2
2022/01/01 00:02:23;;;;;;;46.35;25.55;;;;;;;2.08;100.00;99028.33;1775145;80;21517;-73
2022/01/01 00:04:50;;;;;;;52.73;26.25;;;;;;;2.09;100.00;99032.62;1757307;79;21044;-74
2022/01/01 00:07:17;;;;;;;53.68;27.52;;;;;;;2.05;100.00;99025.80;1748258;81;21507;-75
2022/01/01 00:09:43;;;;;;;54.60;26.77;;;;;;;2.05;100.00;99021.45;1749189;80;21044;-74
2022/01/01 00:12:10;;;;;;;46.85;26.70;;;;;;;2.05;100.00;99023.20;1754586;80;21043;-74
2022/01/01 00:14:39;;;;;;;54.88;28.32;;;;;;;2.05;100.00;99018.00;1748248;81;21068;-74
2022/01/01 00:17:08;;;;;;;50.92;29.20;;;;;;;2.07;100.00;99018.80;1748497;80;21048;-75
2022/01/01 00:19:34;;;;;;;54.53;29.00;;;;;;;2.07;100.00;99011.89;1748508;82;21222;-76
2022/01/01 00:22:02;;;;;;;56.00;31.23;;;;;;;2.07;100.00;99011.89;1769956;80;21611;-74
2022/01/01 00:24:29;;;;;;;58.28;32.00;;;;;;;2.08;100.00;99010.99;1778747;80;21120;-76
2022/01/01 00:26:56;;;;;;;54.70;30.00;;;;;;;2.07;100.00;99011.89;1778944;80;21402;-76
2022/01/01 00:29:23;;;;;;;59.67;32.45;;;;;;;2.07;100.00;99011.89;1778957;79;21235;-76
2022/01/01 00:31:53;;;;;;;102.17;60.67;;;;;;;2.11;100.00;99002.28;1778929;80;21927;-77
2022/01/01 00:34:19;;;;;;;69.72;40.52;;;;;;;2.16;100.00;98995.23;1779075;80;21048;-75
2022/01/01 00:36:46;;;;;;;59.83;32.85;;;;;;;2.16;100.00;98995.23;1770780;80;21654;-73
2022/01/01 00:39:13;;;;;;;49.40;28.35;;;;;;;2.19;100.00;98992.59;1770327;81;21056;-74
2022/01/01 00:41:39;;;;;;;48.52;27.07;;;;;;;2.19;100.00;98992.59;1767402;80;21092;-73
2022/01/01 00:44:06;;;;;;;49.42;24.27;;;;;;;2.22;100.00;98990.38;1770532;80;21201;-73
2022/01/01 00:46:33;;;;;;;45.52;26.70;;;;;;;2.26;100.00;98983.78;1770201;80;21528;-73
2022/01/01 00:49:01;;;;;;;44.33;24.37;;;;;;;2.30;100.00;98979.36;1770058;80;21089;-73
2022/01/01 00:51:28;;;;;;;50.03;25.43;;;;;;;2.30;100.00;98979.36;1770260;81;21009;-73
2022/01/01 00:53:55;;;;;;;47.00;24.95;;;;;;;2.31;100.00;98973.29;1770248;80;21512;-74
2022/01/01 00:56:21;;;;;;;43.40;22.85;;;;;;;2.32;100.00;98971.09;1770170;81;21119;-74
2022/01/01 00:58:47;;;;;;;48.28;25.50;;;;;;;2.36;100.00;98962.80;1770147;81;21027;-74
2022/01/01 01:01:14;;;;;;;42.90;22.52;;;;;;;2.42;100.00;98952.27;1755004;80;21589;-75
2022/01/01 01:03:40;;;;;;;41.48;22.42;;;;;;;2.42;100.00;98952.27;1749122;81;21092;-74
2022/01/01 01:06:07;;;;;;;40.60;21.48;;;;;;;2.47;100.00;98953.86;1770115;80;21053;-73
2022/01/01 01:08:34;;;;;;;35.33;20.02;;;;;;;2.50;100.00;98946.44;1770405;80;21122;-74
2022/01/01 01:11:07;;;;;;;35.75;20.70;;;;;;;2.57;100.00;98947.16;1770056;80;21088;-74
2022/01/01 01:13:32;;;;;;;29.18;16.37;;;;;;;2.59;100.00;98939.72;1770149;80;21488;-73
2022/01/01 01:15:59;;;;;;;27.13;14.80;;;;;;;2.63;100.00;98953.06;1770276;80;21037;-73
2022/01/01 01:18:25;;;;;;;23.52;13.60;;;;;;;2.72;100.00;98946.34;1770407;80;21080;-75
2022/01/01 01:20:51;;;;;;;19.75;12.35;;;;;;;2.81;100.00;98943.13;1755659;80;21795;-74
2022/01/01 01:23:18;;;;;;;22.22;11.97;;;;;;;2.88;100.00;98935.58;1739746;81;21548;-73
2022/01/01 01:25:45;;;;;;;15.03;10.18;;;;;;;2.96;100.00;98933.63;1739741;82;21052;-74
2022/01/01 01:28:14;;;;;;;17.48;10.50;;;;;;;3.00;100.00;98924.01;1739797;82;21119;-75
2022/01/01 01:30:42;;;;;;;19.70;10.72;;;;;;;3.13;100.00;98926.25;1739828;81;21093;-73
2022/01/01 01:33:10;;;;;;;17.85;10.10;;;;;;;3.23;100.00;98915.61;1739945;82;21567;-72
2022/01/01 01:35:38;;;;;;;14.03;9.30;;;;;;;3.30;100.00;98923.20;1739791;82;21033;-74
2022/01/01 01:38:05;;;;;;;16.65;9.58;;;;;;;3.36;100.00;98911.79;1739852;82;21006;-73
2022/01/01 01:40:31;;;;;;;15.50;8.43;;;;;;;3.41;100.00;98908.61;1739537;82;21478;-73
2022/01/01 01:42:58;;;;;;;16.87;9.63;;;;;;;3.48;100.00;98907.53;1739808;82;21342;-74
2022/01/01 01:45:28;;;;;;;18.42;9.35;;;;;;;3.53;100.00;98899.14;1740061;81;21329;-72
2022/01/01 01:47:54;;;;;;;14.50;8.63;;;;;;;3.61;100.00;98898.07;1739587;81;21041;-73
2022/01/01 01:50:20;;;;;;;13.18;8.58;;;;;;;3.66;100.00;98896.18;1739658;81;21044;-75
2022/01/01 01:52:54;;;;;;;14.40;8.70;;;;;;;3.70;100.00;98890.00;1739939;82;21521;-74
2022/01/01 01:55:20;;;;;;;13.45;8.33;;;;;;;3.73;100.00;98887.33;1740261;82;21077;-77
2022/01/01 01:57:47;;;;;;;12.88;8.20;;;;;;;3.77;100.00;98881.98;1739647;82;21146;-75
2022/01/01 02:02:54;;;;;;;12.82;8.25;;;;;;;3.86;100.00;98886.04;1740843;81;21108;-73
2022/01/01 02:05:20;;;;;;;11.65;7.35;;;;;;;3.91;100.00;98884.17;1740110;82;21048;-74
2022/01/01 02:07:48;;;;;;;13.18;8.03;;;;;;;3.94;100.00;98884.08;1739815;82;21060;-75
2022/01/01 02:10:17;;;;;;;11.33;7.55;;;;;;;3.98;100.00;98872.67;1739758;82;21549;-74
2022/01/01 02:12:50;;;;;;;13.68;7.90;;;;;;;4.03;100.00;98871.69;1739854;82;20997;-75
2022/01/01 02:18:16;;;;;;;10.98;6.40;;;;;;;4.08;100.00;98872.39;1739840;82;21069;-75
2022/01/01 02:20:49;;;;;;;10.43;7.03;;;;;;;4.13;100.00;98870.48;1739867;82;21064;-76
2022/01/01 02:23:14;;;;;;;12.23;6.53;;;;;;;4.15;100.00;98863.02;1739290;81;21143;-75
2022/01/01 02:25:40;;;;;;;12.25;6.62;;;;;;;4.20;100.00;98863.73;1740007;82;21006;-75
2022/01/01 02:28:14;;;;;;;10.78;6.47;;;;;;;4.24;100.00;98861.89;1739909;82;20997;-74
2022/01/01 02:30:41;;;;;;;11.30;6.62;;;;;;;4.28;100.00;98855.69;1739792;81;21085;-72
2022/01/01 02:33:08;;;;;;;12.10;7.25;;;;;;;4.31;100.00;98853.43;1739830;82;20978;-74
2022/01/01 02:35:34;;;;;;;11.93;6.47;;;;;;;4.34;100.00;98859.38;1739688;82;21187;-75
2022/01/01 02:38:01;;;;;;;10.05;6.67;;;;;;;4.37;100.00;98861.91;1753615;81;21013;-74
2022/01/01 02:40:28;;;;;;;11.50;6.58;;;;;;;4.41;100.00;98853.06;1770439;81;21002;-77
2022/01/01 02:42:55;;;;;;;10.38;6.33;;;;;;;4.44;100.00;98856.48;1770414;80;21646;-76
2022/01/01 02:45:22;;;;;;;8.78;5.85;;;;;;;4.47;100.00;98848.58;1770406;81;21053;-75
2022/01/01 02:47:49;;;;;;;11.63;6.33;;;;;;;4.51;100.00;98845.82;1770501;80;21077;-76
2022/01/01 02:50:17;;;;;;;10.60;6.83;;;;;;;4.55;100.00;98846.09;1770187;81;21512;-76
2022/01/01 02:52:43;;;;;;;11.45;6.87;;;;;;;4.59;100.00;98850.77;1770422;80;21153;-77
2022/01/01 02:55:12;;;;;;;11.83;6.80;;;;;;;4.61;100.00;98838.54;1770407;80;21005;-77
2022/01/01 02:57:39;;;;;;;11.78;6.17;;;;;;;4.66;100.00;98836.63;1770311;81;21112;-78
2022/01/01 03:00:08;;;;;;;10.45;6.58;;;;;;;4.71;100.00;98836.47;1770368;80;21970;-77
2022/01/01 03:02:35;;;;;;;8.60;6.05;;;;;;;4.74;100.00;98843.75;1770509;80;21121;-77
2022/01/01 03:05:01;;;;;;;10.40;5.58;;;;;;;4.75;100.00;98842.83;1770426;80;21033;-77
2022/01/01 03:07:29;;;;;;;9.88;5.70;;;;;;;4.81;100.00;98836.11;1770267;80;22170;-78
2022/01/01 03:09:56;;;;;;;9.28;6.00;;;;;;;4.86;100.00;98839.87;1770395;81;21113;-77
2022/01/01 03:12:23;;;;;;;8.80;5.78;;;;;;;4.90;100.00;98832.77;1770287;80;21130;-77
2022/01/01 03:14:49;;;;;;;8.35;5.70;;;;;;;4.94;100.00;98838.28;1770272;80;21005;-72
2022/01/01 03:17:17;;;;;;;8.80;5.78;;;;;;;4.99;100.00;98831.14;1770331;80;21166;-71
2022/01/01 03:19:43;;;;;;;9.98;6.50;;;;;;;5.03;100.00;98837.97;1770303;81;21104;-74
2022/01/01 03:22:10;;;;;;;11.00;6.40;;;;;;;5.07;100.00;98834.35;1770568;81;21116;-74
2022/01/01 03:24:36;;;;;;;9.73;6.53;;;;;;;5.11;100.00;98830.73;1770652;80;21128;-74
2022/01/01 03:27:03;;;;;;;8.75;6.35;;;;;;;5.15;100.00;98840.13;1770448;80;21065;-74
2022/01/01 03:29:32;;;;;;;9.40;6.12;;;;;;;5.18;100.00;98836.13;1770371;80;21508;-73
2022/01/01 03:31:59;;;;;;;8.68;6.42;;;;;;;5.22;100.00;98836.42;1770811;81;20966;-70
2022/01/01 03:34:25;;;;;;;10.10;6.90;;;;;;;5.26;100.00;98826.25;1770662;80;21057;-72
2022/01/01 03:36:53;;;;;;;9.38;6.55;;;;;;;5.31;100.00;98843.05;1768015;80;21113;-73
2022/01/01 03:39:27;;;;;;;10.88;7.05;;;;;;;5.33;100.00;98839.93;1766002;81;21030;-72
2022/01/01 03:41:50;;;;;;;11.78;7.37;;;;;;;5.37;100.00;98844.60;1765175;81;21069;-73
2022/01/01 03:44:16;;;;;;;10.85;7.17;;;;;;;5.41;100.00;98840.98;1766208;81;21044;-71
2022/01/01 03:46:43;;;;;;;9.85;6.90;;;;;;;5.47;100.00;98845.95;1765991;81;21069;-73
2022/01/01 03:49:09;;;;;;;10.40;6.85;;;;;;;5.53;100.00;98847.05;1766170;81;21825;-73
2022/01/01 03:51:36;;;;;;;11.40;7.55;;;;;;;5.58;100.00;98843.80;1766145;81;21599;-74
2022/01/01 03:54:03;;;;;;;10.00;7.05;;;;;;;5.62;100.00;98844.09;1766382;81;22040;-73
2022/01/01 03:56:29;;;;;;;11.85;8.00;;;;;;;5.65;100.00;98846.58;1766174;81;21141;-74
2022/01/01 03:58:56;;;;;;;13.45;8.18;;;;;;;5.70;100.00;98847.71;1766198;81;21037;-73
2022/01/01 04:01:22;;;;;;;11.05;7.28;;;;;;;5.73;100.00;98846.73;1766174;81;21581;-72
2022/01/01 04:03:49;;;;;;;11.10;7.65;;;;;;;5.76;100.00;98853.18;1754666;81;21618;-74
2022/01/01 04:06:15;;;;;;;10.40;7.35;;;;;;;5.77;100.00;98857.02;1735635;82;22088;-73
2022/01/01 04:08:42;;;;;;;11.08;7.92;;;;;;;5.80;100.00;98864.77;1735640;82;21520;-72
2022/01/01 04:11:08;;;;;;;12.18;7.72;;;;;;;5.83;100.00;98859.88;1735621;82;21025;-73
2022/01/01 04:13:35;;;;;;;11.83;7.83;;;;;;;5.86;100.00;98861.05;1735535;82;21141;-74
2022/01/01 04:16:04;;;;;;;12.18;8.23;;;;;;;5.89;100.00;98863.56;1735380;82;21014;-71
2022/01/01 04:18:40;;;;;;;11.93;8.18;;;;;;;5.93;100.00;98862.52;1735940;82;21037;-73
2022/01/01 04:21:10;;;;;;;12.40;8.05;;;;;;;5.95;100.00;98870.34;1735888;82;21101;-74
2022/01/01 04:23:39;;;;;;;11.55;7.95;;;;;;;5.97;100.00;98872.44;1744595;81;21069;-73
2022/01/01 04:26:07;;;;;;;10.65;7.70;;;;;;;5.98;100.00;98865.86;1758217;81;21205;-74
2022/01/01 04:28:35;;;;;;;12.85;8.35;;;;;;;6.00;100.00;98877.08;1748943;81;21052;-75
2022/01/01 04:31:01;;;;;;;11.00;6.78;;;;;;;5.98;100.00;98869.78;1735571;82;21033;-74
2022/01/01 04:33:28;;;;;;;11.95;8.85;;;;;;;6.01;100.00;98878.80;1744274;81;21579;-73
2022/01/01 04:35:54;;;;;;;13.18;8.28;;;;;;;6.03;100.00;98873.06;1761705;80;21523;-69
2022/01/01 04:38:38;;;;;;;11.83;8.23;;;;;;;6.03;100.00;98879.59;1762471;81;21129;-67
2022/01/01 04:41:14;;;;;;;13.75;8.98;;;;;;;6.04;100.00;98870.83;1761656;81;21009;-66
2022/01/01 04:43:41;;;;;;;12.73;8.07;;;;;;;6.06;100.00;98875.55;1767249;80;21476;-68
2022/01/01 04:46:08;;;;;;;11.73;7.33;;;;;;;6.04;100.00;98876.06;1769412;80;21533;-69
2022/01/01 04:48:37;;;;;;;11.93;8.08;;;;;;;6.06;100.00;98874.23;1765205;80;20997;-68
2022/01/01 04:51:07;;;;;;;11.88;7.33;;;;;;;6.08;100.00;98873.73;1768464;81;21651;-69
2022/01/01 04:53:35;;;;;;;9.98;6.92;;;;;;;6.08;100.00;98880.27;1767072;81;21010;-68
2022/01/01 04:56:06;;;;;;;11.08;7.47;;;;;;;6.09;100.00;98876.72;1768659;81;21057;-68
2022/01/01 04:58:32;;;;;;;10.80;7.83;;;;;;;6.07;100.00;98881.19;1763791;81;22048;-67
2022/01/01 05:00:58;;;;;;;10.45;6.45;;;;;;;6.05;100.00;98881.70;1764871;81;21532;-68
2022/01/01 05:03:28;;;;;;;9.78;6.75;;;;;;;6.06;100.00;98889.92;1765033;80;22317;-69
2022/01/01 05:05:54;;;;;;;10.38;6.83;;;;;;;6.04;100.00;98889.13;1763573;81;21005;-67
2022/01/01 05:08:20;;;;;;;7.75;5.58;;;;;;;6.04;100.00;98887.81;1767513;81;21078;-68
2022/01/01 05:10:47;;;;;;;8.55;5.17;;;;;;;6.04;100.00;98885.20;1761767;81;21033;-68
2022/01/01 05:13:15;;;;;;;7.83;5.60;;;;;;;6.05;100.00;98889.54;1762390;81;21001;-68
2022/01/01 05:15:41;;;;;;;7.80;5.37;;;;;;;6.06;100.00;98895.15;1739761;81;21106;-68
2022/01/01 05:18:08;;;;;;;8.50;5.45;;;;;;;6.07;100.00;98896.87;1739937;82;21540;-69
2022/01/01 05:20:35;;;;;;;7.45;5.20;;;;;;;6.08;100.00;98897.25;1739891;82;21493;-70
2022/01/01 05:23:02;;;;;;;8.75;5.40;;;;;;;6.06;100.00;98905.60;1740424;81;21032;-68
2022/01/01 05:25:29;;;;;;;8.68;5.12;;;;;;;6.08;100.00;98921.23;1739943;82;21076;-69
2022/01/01 05:27:57;;;;;;;9.50;4.92;;;;;;;6.07;100.00;98928.23;1754542;80;21520;-70
2022/01/01 05:30:24;;;;;;;6.42;4.20;;;;;;;6.06;100.00;98930.44;1750232;81;21009;-69
2022/01/01 05:32:50;;;;;;;4.95;3.42;;;;;;;6.06;100.00;98930.44;1758671;81;21053;-69
2022/01/01 05:35:17;;;;;;;4.92;3.40;;;;;;;6.08;100.00;98938.23;1760877;80;21052;-69
2022/01/01 05:37:45;;;;;;;5.05;3.35;;;;;;;6.08;100.00;98940.38;1763878;80;21749;-71
2022/01/01 05:40:13;;;;;;;5.92;3.30;;;;;;;6.08;100.00;98942.99;1765494;80;21135;-69
2022/01/01 05:42:41;;;;;;;5.37;2.87;;;;;;;6.07;100.00;98950.88;1767728;80;21065;-69
2022/01/01 05:45:09;;;;;;;4.42;2.55;;;;;;;6.05;100.00;98948.34;1775338;80;21080;-68
2022/01/01 05:47:35;;;;;;;4.92;2.95;;;;;;;6.05;100.00;98960.53;1761788;80;21076;-69
2022/01/01 05:50:02;;;;;;;4.05;2.50;;;;;;;6.03;100.00;98973.69;1763313;80;21537;-69
2022/01/01 05:52:29;;;;;;;3.05;2.10;;;;;;;5.99;100.00;98961.63;1766887;80;21194;-69
2022/01/01 05:54:56;;;;;;;2.92;2.52;;;;;;;5.98;100.00;98973.01;1766640;80;21021;-68
2022/01/01 05:57:23;;;;;;;3.65;2.22;;;;;;;5.96;100.00;98974.82;1772078;80;21535;-68
2022/01/01 05:59:49;;;;;;;3.55;2.33;;;;;;;5.94;100.00;98988.39;1764298;80;21040;-68
2022/01/01 06:02:16;;;;;;;3.92;2.17;;;;;;;5.94;100.00;98996.66;1747347;80;20989;-69
2022/01/01 06:04:43;;;;;;;3.35;2.20;;;;;;;5.91;100.00;99000.21;1759667;80;21179;-68
2022/01/01 06:07:10;;;;;;;2.15;1.77;;;;;;;5.91;100.00;99009.81;1772740;80;20970;-69
2022/01/01 06:09:38;;;;;;;2.67;1.70;;;;;;;5.89;100.00;99013.81;1775474;80;21598;-69
2022/01/01 06:12:07;;;;;;;2.08;1.60;;;;;;;5.87;100.00;99009.09;1764397;80;21053;-68
2022/01/01 06:14:33;;;;;;;2.40;1.77;;;;;;;5.86;100.00;99017.82;1746029;80;21103;-68
2022/01/01 06:17:00;;;;;;;2.52;1.67;;;;;;;5.86;100.00;99028.27;1754825;79;21159;-69
2022/01/01 06:19:26;;;;;;;3.90;1.65;;;;;;;5.85;100.00;99030.50;1769459;80;21018;-70
2022/01/01 06:21:54;;;;;;;2.08;1.50;;;;;;;5.85;100.00;99037.03;1745457;81;21029;-69
2022/01/01 06:24:20;;;;;;;2.12;1.35;;;;;;;5.83;100.00;99038.84;1745739;82;21091;-68
2022/01/01 06:26:46;;;;;;;2.62;1.42;;;;;;;5.82;100.00;99046.27;1745413;82;21508;-68
2022/01/01 06:29:13;;;;;;;1.77;1.57;;;;;;;5.81;100.00;99058.94;1745287;81;21815;-68
2022/01/01 06:31:40;;;;;;;2.25;1.57;;;;;;;5.78;100.00;99059.91;1745393;82;21044;-68
2022/01/01 06:34:08;;;;;;;1.62;1.30;;;;;;;5.75;100.00;99063.94;1745735;82;21060;-69
2022/01/01 06:36:35;;;;;;;1.85;1.15;;;;;;;5.76;100.00;99072.63;1745279;82;21048;-68
2022/01/01 06:39:01;;;;;;;1.87;1.40;;;;;;;5.71;100.00;99075.85;1746769;81;21504;-68
2022/01/01 06:41:28;;;;;;;3.00;1.50;;;;;;;5.70;100.00;99079.35;1740039;81;21134;-66
2022/01/01 06:43:55;;;;;;;1.32;1.22;;;;;;;5.68;100.00;99079.39;1739627;81;20998;-69
2022/01/01 06:46:22;;;;;;;1.98;1.05;;;;;;;5.65;100.00;99082.97;1739808;81;21049;-69
2022/01/01 06:48:48;;;;;;;1.87;1.20;;;;;;;5.65;100.00;99086.03;1739877;81;21492;-68
2022/01/01 06:51:15;;;;;;;1.00;0.90;;;;;;;5.65;100.00;99094.72;1739648;82;21029;-69
2022/01/01 06:53:42;;;;;;;2.27;1.17;;;;;;;5.63;100.00;99099.14;1761310;81;21134;-69
2022/01/01 06:56:09;;;;;;;1.50;1.05;;;;;;;5.62;100.00;99102.67;1739719;82;21049;-68
2022/01/01 06:58:37;;;;;;;1.72;1.15;;;;;;;5.61;100.00;99107.94;1739768;82;21009;-69
2022/01/01 07:01:04;;;;;;;1.70;1.17;;;;;;;5.60;100.00;99103.17;1739979;81;21033;-69
2022/01/01 07:03:32;;;;;;;1.72;1.20;;;;;;;5.60;100.00;99108.39;1748043;81;21105;-68
2022/01/01 07:06:00;;;;;;;1.35;1.10;;;;;;;5.61;100.00;99119.26;1770306;80;21366;-68
2022/01/01 07:08:27;;;;;;;2.42;1.30;;;;;;;5.61;100.00;99117.95;1770564;81;21124;-77
2022/01/01 07:10:54;;;;;;;1.30;1.12;;;;;;;5.61;100.00;99128.41;1769694;80;20982;-77
2022/01/01 07:13:22;;;;;;;1.47;1.10;;;;;;;5.64;100.00;99128.29;1764044;80;21027;-77
2022/01/01 07:15:48;;;;;;;2.10;1.47;;;;;;;5.64;100.00;99128.75;1766836;81;21060;-77
2022/01/01 07:18:15;;;;;;;2.20;1.17;;;;;;;5.62;100.00;99137.08;1767729;81;21084;-75
2022/01/01 07:20:42;;;;;;;1.40;1.30;;;;;;;5.59;100.00;99135.43;1764732;81;21101;-76
2022/01/01 07:23:10;;;;;;;2.20;1.60;;;;;;;5.58;100.00;99142.84;1768242;80;21026;-76
2022/01/01 07:25:36;;;;;;;1.35;1.15;;;;;;;5.57;100.00;99148.98;1757996;80;21159;-76
2022/01/01 07:28:03;;;;;;;2.72;1.57;;;;;;;5.58;100.00;99148.53;1767052;80;21526;-77
2022/01/01 07:30:30;;;;;;;1.80;1.20;;;;;;;5.54;100.00;99155.59;1770510;81;21111;-76
2022/01/01 07:32:56;;;;;;;1.77;1.07;;;;;;;5.53;100.00;99148.67;1741583;81;21104;-77
2022/01/01 07:35:23;;;;;;;1.20;1.10;;;;;;;5.53;100.00;99153.90;1738474;82;21128;-76
2022/01/01 07:37:50;;;;;;;2.15;1.40;;;;;;;5.50;100.00;99161.84;1760570;80;20950;-76
2022/01/01 07:40:17;;;;;;;2.27;1.30;;;;;;;5.51;100.00;99160.92;1765253;81;20971;-78
2022/01/01 07:42:44;;;;;;;1.52;1.30;;;;;;;5.51;100.00;99163.53;1759628;81;21101;-76
2022/01/01 07:45:11;;;;;;;1.35;1.10;;;;;;;5.49;100.00;99164.03;1763790;81;21026;-75
2022/01/01 07:47:39;;;;;;;1.52;1.07;;;;;;;5.50;100.00;99160.53;1721093;81;21206;-75
2022/01/01 07:50:07;;;;;;;2.05;1.22;;;;;;;5.49;100.00;99162.73;1743484;81;22220;-77
2022/01/01 07:52:35;;;;;;;1.62;1.30;;;;;;;5.49;100.00;99157.50;1762557;80;21403;-75
2022/01/01 07:55:01;;;;;;;2.22;1.40;;;;;;;5.46;100.00;99162.84;1753784;81;21113;-76
2022/01/01 07:57:28;;;;;;;1.85;1.32;;;;;;;5.47;100.00;99167.14;1739983;81;20992;-75
2022/01/01 07:59:55;;;;;;;1.17;1.05;;;;;;;5.48;100.00;99166.25;1743816;80;21022;-77
2022/01/01 08:02:21;;;;;;;2.77;1.60;;;;;;;5.48;100.00;99169.33;1749266;80;21092;-76
2022/01/01 08:04:48;;;;;;;2.22;1.85;;;;;;;5.45;100.00;99170.25;1770751;81;21546;-79
2022/01/01 08:07:14;;;;;;;2.22;1.50;;;;;;;5.44;100.00;99164.18;1760916;81;21109;-78
2022/01/01 08:09:42;;;;;;;2.10;1.32;;;;;;;5.46;100.00;99166.75;1754782;81;21013;-77
2022/01/01 08:12:10;;;;;;;9.33;2.37;;;;;;;5.45;100.00;99174.16;1763119;80;21088;-77
2022/01/01 08:14:36;;;;;;;2.83;1.80;;;;;;;5.43;100.00;99170.77;1746384;81;21032;-75
2022/01/01 08:17:06;;;;;;;4.03;2.08;;;;;;;5.43;100.00;99172.92;1762520;81;21033;-74
2022/01/01 08:19:33;;;;;;;3.15;2.05;;;;;;;5.45;100.00;99172.43;1751901;81;21134;-76
2022/01/01 08:22:04;;;;;;;11.12;4.42;;;;;;;5.47;100.00;99174.98;1754351;80;21001;-77
2022/01/01 08:24:32;;;;;;;1.82;1.42;;;;;;;5.48;100.00;99176.70;1753371;81;21049;-76
2022/01/01 08:26:58;;;;;;;1.82;1.10;;;;;;;5.50;100.00;99176.20;1766635;80;21141;-75
2022/01/01 08:29:26;;;;;;;2.12;1.35;;;;;;;5.53;100.00;99174.79;1759707;81;21030;-77
2022/01/01 08:31:56;;;;;;;1.45;0.90;;;;;;;5.57;100.00;99177.72;1760225;80;21022;-76
2022/01/01 08:34:22;;;;;;;2.25;1.32;;;;;;;5.60;100.00;99186.75;1748976;81;21092;-75
2022/01/01 08:36:49;;;;;;;2.40;1.20;;;;;;;5.59;100.00;99187.67;1756603;81;21080;-75
2022/01/01 08:39:16;;;;;;;3.58;1.30;;;;;;;5.58;100.00;99196.39;1744303;80;21005;-76
2022/01/01 08:41:44;;;;;;;1.30;0.90;;;;;;;5.54;100.00;99189.55;1760928;80;21021;-75
2022/01/01 08:44:12;;;;;;;2.00;1.12;;;;;;;5.51;100.00;99190.95;1761366;80;21103;-76
2022/01/01 08:46:39;;;;;;;3.00;1.55;;;;;;;5.47;100.00;99198.48;1768410;79;21056;-77
2022/01/01 08:49:06;;;;;;;1.27;0.80;;;;;;;5.46;100.00;99194.17;1774174;80;21507;-78
2022/01/01 08:51:34;;;;;;;10.10;3.35;;;;;;;5.48;100.00;99204.12;1762982;80;21036;-76
2022/01/01 08:54:01;;;;;;;6.33;2.95;;;;;;;5.49;100.00;99201.90;1752734;80;21089;-76
2022/01/01 08:56:29;;;;;;;3.05;1.90;;;;;;;5.54;100.00;99209.13;1767666;80;21887;-71
2022/01/01 08:58:55;;;;;;;69.50;25.48;;;;;;;5.58;100.00;99200.30;1769421;80;21088;-71
2022/01/01 09:01:21;;;;;;;52.20;19.37;;;;;;;5.60;100.00;99212.02;1757345;80;21052;-69
2022/01/01 09:03:48;;;;;;;70.72;25.77;;;;;;;5.59;100.00;99212.48;1757989;80;21604;-69
2022/01/01 09:06:15;;;;;;;52.88;21.97;;;;;;;5.61;100.00;99205.45;1774748;80;21806;-69
2022/01/01 09:08:42;;;;;;;10.18;3.98;;;;;;;5.65;100.00;99204.89;1773637;80;21073;-72
2022/01/01 09:11:12;;;;;;;9.53;4.45;;;;;;;5.67;100.00;99210.46;1767682;80;21022;-70
2022/01/01 09:13:42;;;;;;;1.10;0.90;;;;;;;5.68;100.00;99207.39;1771469;80;21073;-69
2022/01/01 09:16:10;;;;;;;7.67;4.12;;;;;;;5.71;100.00;99210.39;1765909;80;21080;-69
2022/01/01 09:18:40;;;;;;;16.97;9.20;;;;;;;5.71;100.00;99220.84;1768631;80;21080;-70
2022/01/01 09:21:07;;;;;;;4.30;2.75;;;;;;;5.70;100.00;99217.80;1756287;80;21092;-70
2022/01/01 09:23:34;;;;;;;4.35;2.17;;;;;;;5.69;100.00;99211.73;1771009;80;21006;-69
2022/01/01 09:26:02;;;;;;;6.33;3.77;;;;;;;5.70;100.00;99212.58;1773886;80;21107;-72
2022/01/01 09:28:30;;;;;;;2.77;1.42;;;;;;;5.70;100.00;99213.42;1773067;79;21001;-70
2022/01/01 09:30:57;;;;;;;16.42;6.97;;;;;;;5.65;100.00;99204.89;1771597;79;21108;-68
2022/01/01 09:33:29;;;;;;;253.60;101.58;;;;;;;5.73;100.00;99219.00;1767878;80;21930;-69
2022/01/01 09:35:53;;;;;;;198.70;76.50;;;;;;;5.75;100.00;99214.16;1754059;80;21630;-67
2022/01/01 09:38:19;;;;;;;47.98;17.57;;;;;;;5.81;100.00;99215.70;1765162;80;21548;-69
2022/01/01 09:40:46;;;;;;;31.33;12.82;;;;;;;5.86;100.00;99218.56;1757481;80;21064;-69
2022/01/01 09:43:12;;;;;;;76.80;29.90;;;;;;;5.91;100.00;99217.56;1741127;81;21037;-69
2022/01/01 09:45:43;;;;;;;45.12;17.77;;;;;;;5.94;100.00;99222.28;1761682;80;21072;-70
2022/01/01 09:48:10;;;;;;;128.67;49.80;;;;;;;6.00;100.00;99229.05;1766925;80;21080;-68
2022/01/01 09:50:36;;;;;;;117.17;45.00;;;;;;;6.00;100.00;99227.29;1756430;80;21531;-70
2022/01/01 09:53:03;;;;;;;55.33;21.35;;;;;;;6.00;100.00;99229.05;1738506;82;21092;-70
2022/01/01 09:55:29;;;;;;;12.10;5.35;;;;;;;6.01;100.00;99232.09;1739571;81;21546;-67
2022/01/01 09:57:56;;;;;;;26.77;11.38;;;;;;;6.01;100.00;99229.02;1746949;81;21482;-67
2022/01/01 10:00:22;;;;;;;12.05;6.37;;;;;;;5.99;100.00;99233.44;1762303;80;21053;-69
2022/01/01 10:02:49;;;;;;;14.30;7.12;;;;;;;5.97;100.00;99231.32;1770137;80;21087;-69
2022/01/01 10:05:16;;;;;;;14.45;6.28;;;;;;;5.95;100.00;99231.81;1754617;80;21529;-70
2022/01/01 10:07:42;;;;;;;29.87;13.05;;;;;;;5.93;100.00;99219.22;1764703;80;21030;-70
2022/01/01 10:10:23;;;;;;;10.88;6.30;;;;;;;5.91;100.00;99223.64;1721905;82;21937;-70
2022/01/01 10:12:51;;;;;;;10.93;6.15;;;;;;;5.90;100.00;99229.78;1740624;81;21592;-70
2022/01/01 10:15:18;;;;;;;12.90;7.28;;;;;;;5.86;100.00;99224.24;1768411;81;21057;-69
2022/01/01 10:17:46;;;;;;;81.53;33.38;;;;;;;5.81;100.00;99224.39;1761748;80;21615;-69
2022/01/01 10:20:13;;;;;;;65.97;29.07;;;;;;;5.79;100.00;99227.50;1765173;81;21053;-71
2022/01/01 10:22:40;;;;;;;212.10;81.32;;;;;;;5.81;100.00;99227.46;1765670;81;21902;-69
2022/01/01 10:28:04;;;;;;;34.65;15.18;;;;;;;5.87;100.00;99223.36;1750067;81;21030;-69
2022/01/01 10:30:35;;;;;;;88.17;36.48;;;;;;;5.89;100.00;99226.78;1770329;81;21060;-70
2022/01/01 10:33:14;;;;;;;17.60;8.55;;;;;;;5.94;100.00;99227.52;1739784;81;21049;-69
2022/01/01 10:35:44;;;;;;;2.98;2.27;;;;;;;6.01;100.00;99225.55;1763923;81;21817;-71
2022/01/01 10:38:22;;;;;;;3.83;3.42;;;;;;;6.01;100.00;99226.41;1762706;80;21060;-69
2022/01/01 10:41:07;;;;;;;3.87;3.10;;;;;;;6.00;100.00;99222.06;1755784;80;21052;-70
2022/01/01 10:43:39;;;;;;;6.03;3.47;;;;;;;6.04;100.00;99223.67;1728441;81;21061;-69
2022/01/01 10:46:16;;;;;;;7.53;3.67;;;;;;;6.12;100.00;99212.11;1745421;81;21072;-70
2022/01/01 10:48:57;;;;;;;68.05;26.05;;;;;;;6.18;100.00;99226.30;1733809;81;21885;-69
2022/01/01 10:54:01;;;;;;;5.12;2.77;;;;;;;6.36;100.00;99223.05;1796194;79;28515;-69
2022/01/01 10:56:37;;;;;;;3.90;2.62;;;;;;;6.30;100.00;99224.56;1752056;81;21036;-68
2022/01/01 10:59:04;;;;;;;3.22;1.98;;;;;;;6.29;100.00;99226.79;1696596;82;21141;-69
2022/01/01 11:01:33;;;;;;;14.40;6.17;;;;;;;6.28;100.00;99227.25;1673652;84;21053;-70
2022/01/01 11:04:00;;;;;;;3.92;1.90;;;;;;;6.27;100.00;99224.67;1673258;85;21056;-70
2022/01/01 11:06:32;;;;;;;2.17;1.45;;;;;;;6.26;100.00;99229.52;1631217;86;21044;-70
2022/01/01 11:08:58;;;;;;;4.00;2.27;;;;;;;6.26;100.00;99227.75;1658174;85;21159;-71
2022/01/01 11:11:25;;;;;;;9.73;4.90;;;;;;;6.22;100.00;99229.21;1662961;85;21508;-69
2022/01/01 11:13:52;;;;;;;3.65;2.15;;;;;;;6.26;100.00;99232.13;1701692;84;21124;-70
2022/01/01 11:16:19;;;;;;;9.33;3.60;;;;;;;6.61;100.00;99226.98;1707582;84;21097;-70
2022/01/01 11:18:47;;;;;;;2.12;1.30;;;;;;;7.10;100.00;99226.96;1683969;84;21136;-69
2022/01/01 11:21:14;;;;;;;5.60;2.17;;;;;;;7.41;100.00;99233.66;1707123;84;21187;-69
2022/01/01 11:23:40;;;;;;;8.38;3.92;;;;;;;7.47;100.00;99229.03;1686651;84;21829;-69
2022/01/01 11:26:08;;;;;;;27.52;11.25;;;;;;;7.44;100.00;99234.86;1607259;85;21072;-70
2022/01/01 11:28:35;;;;;;;47.88;21.50;;;;;;;7.37;100.00;99239.95;1678376;85;21097;-71
2022/01/01 11:31:07;;;;;;;8.48;4.97;;;;;;;7.34;100.00;99234.38;1678640;84;21075;-72
2022/01/01 11:33:40;;;;;;;13.70;6.37;;;;;;;7.35;100.00;99234.75;1678857;85;21116;-73
2022/01/01 11:36:07;;;;;;;29.95;15.40;;;;;;;7.37;100.00;99230.31;1678150;84;21168;-70
2022/01/01 11:38:35;;;;;;;7.83;5.00;;;;;;;7.33;100.00;99236.58;1678471;85;21100;-71
2022/01/01 11:41:12;;;;;;;5.50;3.98;;;;;;;7.26;100.00;99241.19;1678537;85;21137;-70